createdAt,value
2019-03-29T00:00:25.021Z,25.27
2019-03-29T00:02:56.229Z,20.87
2019-03-29T00:05:27.454Z,21.87
2019-03-29T00:07:58.639Z,20.97
2019-03-29T00:10:29.847Z,25.33
2019-03-29T00:13:01.053Z,21.90
2019-03-29T00:15:32.273Z,22.90
2019-03-29T00:18:03.411Z,25.77
2019-03-29T00:20:34.591Z,21.60
2019-03-29T00:23:05.788Z,26.00
2019-03-29T00:25:37.086Z,23.90
2019-03-29T00:28:08.302Z,30.87
2019-03-29T00:30:39.478Z,23.80
2019-03-29T00:33:11.224Z,28.60
2019-03-29T00:35:42.509Z,24.23
2019-03-29T00:38:13.658Z,24.00
2019-03-29T00:40:44.903Z,28.23
2019-03-29T00:43:16.148Z,23.70
2019-03-29T00:45:47.426Z,26.33
2019-03-29T00:48:18.732Z,25.67
2019-03-29T00:50:50.088Z,30.60
2019-03-29T00:53:21.282Z,27.63
2019-03-29T00:55:52.511Z,24.13
2019-03-29T00:58:23.757Z,26.30
2019-03-29T01:00:55.033Z,24.80
2019-03-29T01:03:26.291Z,25.87
2019-03-29T01:05:57.596Z,27.47
2019-03-29T01:08:28.881Z,27.00
2019-03-29T01:11:00.149Z,25.03
2019-03-29T01:13:31.315Z,28.03
2019-03-29T01:16:02.551Z,29.90
2019-03-29T01:18:33.717Z,25.63
2019-03-29T01:21:04.974Z,30.70
2019-03-29T01:23:36.150Z,34.10
2019-03-29T01:26:07.426Z,27.43
2019-03-29T01:28:38.719Z,30.13
2019-03-29T01:31:10.190Z,33.67
2019-03-29T01:33:41.395Z,33.53
2019-03-29T01:36:12.622Z,29.67
2019-03-29T01:38:43.919Z,30.20
2019-03-29T01:41:16.624Z,33.97
2019-03-29T01:43:47.842Z,30.67
2019-03-29T01:46:19.097Z,35.13
2019-03-29T01:48:50.303Z,28.80
2019-03-29T01:51:21.589Z,40.23
2019-03-29T01:53:52.827Z,27.17
2019-03-29T01:56:24.082Z,33.77
2019-03-29T01:58:55.318Z,37.13
2019-03-29T02:01:26.575Z,38.77
2019-03-29T02:03:57.831Z,34.00
2019-03-29T02:06:29.127Z,34.03
2019-03-29T02:09:00.373Z,30.43
2019-03-29T02:11:31.701Z,36.93
2019-03-29T02:14:03.026Z,30.90
2019-03-29T02:16:34.322Z,33.03
2019-03-29T02:19:06.007Z,29.17
2019-03-29T02:21:37.396Z,34.40
2019-03-29T02:24:08.621Z,38.07
2019-03-29T02:26:39.900Z,35.00
2019-03-29T02:29:11.277Z,34.60
2019-03-29T02:31:42.893Z,39.80
2019-03-29T02:34:15.687Z,33.43
2019-03-29T02:36:47.177Z,31.23
2019-03-29T02:39:18.460Z,31.53
2019-03-29T02:41:49.779Z,38.23
2019-03-29T02:44:21.079Z,37.37
2019-03-29T02:46:53.506Z,37.63
2019-03-29T02:49:25.504Z,37.30
2019-03-29T02:51:56.811Z,36.70
2019-03-29T02:54:28.120Z,33.83
2019-03-29T02:56:59.878Z,38.63
2019-03-29T02:59:31.132Z,35.07
2019-03-29T03:02:02.688Z,36.40
2019-03-29T03:04:33.984Z,35.27
2019-03-29T03:07:05.211Z,41.10
2019-03-29T03:09:36.540Z,44.57
2019-03-29T03:12:08.481Z,40.90
2019-03-29T03:14:39.781Z,47.30
2019-03-29T03:17:11.056Z,39.23
2019-03-29T03:19:42.402Z,34.83
2019-03-29T03:22:13.608Z,36.87
2019-03-29T03:24:44.843Z,38.27
2019-03-29T03:27:16.142Z,41.67
2019-03-29T03:29:48.437Z,49.10
2019-03-29T03:32:20.005Z,39.23
2019-03-29T03:34:51.465Z,38.47
2019-03-29T03:37:22.887Z,46.97
2019-03-29T03:39:54.122Z,42.27
2019-03-29T03:42:25.378Z,43.53
2019-03-29T03:44:56.735Z,41.30
2019-03-29T03:47:27.944Z,41.23
2019-03-29T03:50:01.235Z,40.33
2019-03-29T03:52:34.935Z,45.53
2019-03-29T03:55:07.335Z,39.77
2019-03-29T03:57:40.185Z,41.13
2019-03-29T04:00:11.805Z,45.73
2019-03-29T04:02:43.013Z,41.63
2019-03-29T04:05:14.227Z,39.93
2019-03-29T04:07:45.423Z,41.87
2019-03-29T04:10:16.703Z,41.23
2019-03-29T04:12:47.895Z,42.50
2019-03-29T04:15:19.176Z,45.27
2019-03-29T04:17:50.395Z,47.00
2019-03-29T04:20:21.724Z,44.63
2019-03-29T04:22:53.083Z,45.53
2019-03-29T04:25:24.287Z,47.20
2019-03-29T04:27:55.643Z,50.57
2019-03-29T04:30:27.021Z,59.90
2019-03-29T04:32:58.340Z,57.63
2019-03-29T04:35:29.653Z,54.13
2019-03-29T04:38:00.902Z,45.40
2019-03-29T04:40:32.094Z,48.57
2019-03-29T04:43:03.383Z,38.53
2019-03-29T04:45:34.707Z,42.77
2019-03-29T04:48:06.057Z,42.83
2019-03-29T04:50:37.361Z,51.17
2019-03-29T04:53:08.723Z,39.73
2019-03-29T04:55:40.054Z,56.90
2019-03-29T04:58:11.380Z,45.03
2019-03-29T05:00:42.741Z,41.80
2019-03-29T05:03:13.940Z,44.97
2019-03-29T05:05:45.208Z,46.23
2019-03-29T05:08:16.464Z,47.00
2019-03-29T05:10:47.739Z,64.03
2019-03-29T05:13:18.948Z,55.07
2019-03-29T05:15:50.165Z,66.70
2019-03-29T05:18:21.514Z,66.43
2019-03-29T05:20:52.884Z,68.73
2019-03-29T05:23:24.261Z,58.77
2019-03-29T05:25:55.537Z,47.63
2019-03-29T05:28:27.818Z,57.43
2019-03-29T05:30:59.002Z,63.43
2019-03-29T05:33:30.276Z,69.67
2019-03-29T05:36:01.571Z,61.93
2019-03-29T05:38:32.909Z,50.83
2019-03-29T05:41:04.226Z,59.07
2019-03-29T05:43:35.478Z,48.47
2019-03-29T05:46:06.699Z,44.87
2019-03-29T05:48:38.054Z,45.33
2019-03-29T05:51:09.351Z,53.73
2019-03-29T05:53:40.587Z,54.50
2019-03-29T05:56:11.831Z,39.50
2019-03-29T05:58:43.180Z,36.60
2019-03-29T06:01:14.468Z,39.07
2019-03-29T06:03:45.812Z,32.20
2019-03-29T06:06:17.109Z,37.10
2019-03-29T06:08:48.345Z,30.07
2019-03-29T06:11:19.531Z,27.17
2019-03-29T06:13:50.848Z,26.17
2019-03-29T06:16:22.127Z,26.80
2019-03-29T06:18:53.481Z,30.30
2019-03-29T06:21:24.823Z,25.60
2019-03-29T06:23:56.083Z,25.80
2019-03-29T06:26:27.440Z,22.53
2019-03-29T06:28:58.726Z,24.17
2019-03-29T06:31:29.934Z,21.63
2019-03-29T06:34:01.199Z,22.50
2019-03-29T06:36:33.220Z,23.47
2019-03-29T06:39:06.442Z,24.30
2019-03-29T06:41:37.649Z,20.10
2019-03-29T06:44:08.955Z,24.83
2019-03-29T06:46:40.314Z,20.53
2019-03-29T06:49:11.622Z,22.07
2019-03-29T06:51:42.944Z,21.60
2019-03-29T06:54:14.211Z,19.93
2019-03-29T06:56:45.507Z,19.83
2019-03-29T06:59:16.783Z,17.00
2019-03-29T07:01:48.120Z,20.63
2019-03-29T07:04:19.466Z,19.63
2019-03-29T07:06:50.823Z,23.17
2019-03-29T07:09:22.169Z,17.60
2019-03-29T07:11:53.528Z,17.37
2019-03-29T07:14:24.905Z,16.43
2019-03-29T07:16:56.248Z,21.23
2019-03-29T07:19:27.545Z,20.57
2019-03-29T07:21:58.771Z,19.20
2019-03-29T07:24:30.058Z,20.67
2019-03-29T07:27:01.383Z,17.77
2019-03-29T07:29:32.711Z,18.77
2019-03-29T07:32:04.003Z,21.27
2019-03-29T07:34:35.277Z,16.70
2019-03-29T07:37:06.578Z,16.47
2019-03-29T07:39:37.797Z,20.73
2019-03-29T07:42:08.973Z,17.57
2019-03-29T07:44:40.190Z,21.70
2019-03-29T07:47:11.407Z,17.53
2019-03-29T07:49:42.612Z,21.00
2019-03-29T07:52:13.789Z,20.03
2019-03-29T07:54:44.996Z,20.90
2019-03-29T07:57:16.272Z,18.43
2019-03-29T07:59:47.458Z,18.53
2019-03-29T08:02:18.636Z,17.63
2019-03-29T08:04:50.461Z,17.80
2019-03-29T08:07:27.575Z,19.10
2019-03-29T08:09:55.425Z,19.07
2019-03-29T08:12:26.747Z,16.17
2019-03-29T08:14:57.990Z,17.03
2019-03-29T08:17:29.098Z,16.33
2019-03-29T08:20:35.919Z,19.10
2019-03-29T08:22:33.256Z,15.73
2019-03-29T08:25:04.475Z,14.80
2019-03-29T08:27:35.741Z,14.60
2019-03-29T08:30:07.067Z,17.17
2019-03-29T08:32:38.335Z,14.73
2019-03-29T08:35:10.291Z,16.80
2019-03-29T08:37:41.458Z,13.60
2019-03-29T08:40:12.983Z,15.67
2019-03-29T08:42:44.440Z,15.30
2019-03-29T08:45:15.772Z,14.30
2019-03-29T08:47:47.072Z,14.07
2019-03-29T08:50:18.400Z,12.60
2019-03-29T08:52:49.629Z,13.63
2019-03-29T08:55:20.962Z,15.93
2019-03-29T08:57:52.191Z,18.90
2019-03-29T09:00:33.870Z,14.13
2019-03-29T09:03:05.136Z,14.67
2019-03-29T09:05:39.164Z,12.73
2019-03-29T09:08:09.227Z,13.67
2019-03-29T09:10:40.496Z,13.03
2019-03-29T09:13:11.760Z,14.40
2019-03-29T09:15:43.076Z,16.93
2019-03-29T09:18:14.308Z,16.03
2019-03-29T09:20:45.621Z,15.03
2019-03-29T09:23:16.875Z,11.97
2019-03-29T09:25:48.102Z,13.00
2019-03-29T09:28:19.359Z,11.17
2019-03-29T09:30:50.755Z,10.53
2019-03-29T09:33:40.847Z,14.80
2019-03-29T09:36:12.157Z,15.37
2019-03-29T09:38:43.798Z,12.97
2019-03-29T09:41:18.318Z,17.43
2019-03-29T09:43:49.602Z,17.43
2019-03-29T09:46:20.908Z,19.03
2019-03-29T09:48:52.113Z,11.00
2019-03-29T09:51:23.394Z,16.00
2019-03-29T09:53:57.757Z,13.90
2019-03-29T09:56:37.924Z,12.83
2019-03-29T09:59:00.478Z,10.20
2019-03-29T10:01:31.915Z,10.53
2019-03-29T10:04:03.236Z,12.50
2019-03-29T10:06:34.562Z,12.10
2019-03-29T10:09:07.406Z,12.87
2019-03-29T10:11:38.644Z,11.67
2019-03-29T10:14:09.935Z,13.97
2019-03-29T10:16:41.206Z,14.40
2019-03-29T10:19:12.499Z,17.53
2019-03-29T10:21:43.789Z,13.73
2019-03-29T10:24:14.968Z,13.27
2019-03-29T10:26:46.314Z,10.43
2019-03-29T10:29:17.537Z,10.70
2019-03-29T10:31:48.836Z,10.70
2019-03-29T10:34:20.059Z,12.30
2019-03-29T10:36:51.356Z,15.67
2019-03-29T10:39:26.023Z,14.87
2019-03-29T10:41:55.620Z,12.77
2019-03-29T10:44:26.905Z,13.80
2019-03-29T10:46:58.142Z,13.03
2019-03-29T10:49:29.328Z,12.93
2019-03-29T10:52:00.625Z,11.80
2019-03-29T10:54:31.930Z,11.47
2019-03-29T10:57:03.238Z,12.73
2019-03-29T10:59:34.443Z,11.30
2019-03-29T11:02:05.890Z,11.03
2019-03-29T11:04:37.286Z,9.40
2019-03-29T11:07:08.671Z,12.37
2019-03-29T11:09:39.930Z,11.03
2019-03-29T11:12:11.164Z,9.77
2019-03-29T11:14:42.470Z,9.10
2019-03-29T11:17:13.778Z,9.37
2019-03-29T11:19:45.103Z,8.03
2019-03-29T11:22:16.449Z,8.40
2019-03-29T11:24:47.759Z,9.03
2019-03-29T11:27:22.349Z,6.83
2019-03-29T11:29:52.079Z,6.63
2019-03-29T11:32:23.425Z,7.97
2019-03-29T11:34:54.621Z,8.90
2019-03-29T11:37:25.887Z,5.67
2019-03-29T11:39:57.295Z,5.77
2019-03-29T11:42:28.570Z,6.83
2019-03-29T11:44:59.876Z,7.40
2019-03-29T11:47:31.233Z,6.23
2019-03-29T11:50:02.489Z,6.53
2019-03-29T11:52:34.030Z,6.80
2019-03-29T11:55:05.762Z,7.73
2019-03-29T11:57:37.252Z,6.10
2019-03-29T12:00:09.684Z,8.13
2019-03-29T12:02:41.091Z,6.83
2019-03-29T12:05:12.399Z,7.07
2019-03-29T12:07:43.712Z,6.90
2019-03-29T12:10:14.949Z,6.97
2019-03-29T12:12:46.205Z,6.40
2019-03-29T12:15:17.551Z,6.10
2019-03-29T12:17:48.858Z,6.63
2019-03-29T12:20:20.114Z,8.43
2019-03-29T12:22:51.353Z,6.77
2019-03-29T12:25:22.556Z,7.53
2019-03-29T12:27:53.805Z,6.97
2019-03-29T12:30:31.860Z,6.83
2019-03-29T12:32:58.075Z,9.77
2019-03-29T12:35:29.353Z,8.53
2019-03-29T12:38:00.570Z,7.23
2019-03-29T12:40:31.784Z,7.60
2019-03-29T12:43:02.991Z,9.50
2019-03-29T12:45:34.358Z,9.40
2019-03-29T12:48:05.584Z,8.63
2019-03-29T12:50:36.972Z,10.80
2019-03-29T12:53:08.255Z,8.07
2019-03-29T12:55:39.515Z,7.57
2019-03-29T12:58:10.718Z,6.70
2019-03-29T13:00:42.035Z,7.70
2019-03-29T13:03:13.356Z,7.20
2019-03-29T13:05:44.677Z,6.50
2019-03-29T13:08:15.843Z,7.80
2019-03-29T13:10:47.252Z,7.53
2019-03-29T13:13:18.567Z,8.83
2019-03-29T13:15:49.802Z,6.35
2019-03-29T13:18:21.018Z,6.45
2019-03-29T13:20:52.376Z,7.00
2019-03-29T13:23:23.643Z,7.37
2019-03-29T13:25:54.947Z,7.20
2019-03-29T13:28:26.173Z,8.37
2019-03-29T13:30:58.323Z,6.83
2019-03-29T13:33:29.576Z,7.33
2019-03-29T13:36:00.936Z,8.33
2019-03-29T13:38:32.242Z,6.07
2019-03-29T13:41:06.889Z,6.03
2019-03-29T13:43:36.504Z,7.93
2019-03-29T13:46:07.758Z,6.80
2019-03-29T13:48:39.025Z,11.37
2019-03-29T13:51:10.545Z,8.40
2019-03-29T13:53:41.818Z,7.00
2019-03-29T13:56:13.164Z,6.70
2019-03-29T13:58:44.440Z,7.10
2019-03-29T14:01:15.667Z,10.27
2019-03-29T14:03:46.843Z,6.63
2019-03-29T14:06:18.111Z,7.20
2019-03-29T14:08:49.357Z,6.50
2019-03-29T14:11:20.665Z,5.37
2019-03-29T14:13:51.949Z,5.30
2019-03-29T14:16:23.295Z,6.90
2019-03-29T14:18:54.522Z,5.13
2019-03-29T14:21:25.848Z,5.40
2019-03-29T14:23:57.137Z,8.57
2019-03-29T14:26:28.423Z,5.97
2019-03-29T14:28:59.754Z,7.20
2019-03-29T14:31:30.983Z,5.00
2019-03-29T14:34:02.289Z,5.07
2019-03-29T14:36:33.590Z,5.67
2019-03-29T14:39:06.595Z,4.47
2019-03-29T14:41:37.899Z,4.77
2019-03-29T14:44:09.145Z,4.50
2019-03-29T14:46:40.502Z,4.20
2019-03-29T14:49:11.798Z,5.70
2019-03-29T14:51:43.154Z,5.27
2019-03-29T14:54:14.339Z,7.30
2019-03-29T14:56:45.617Z,5.00
2019-03-29T14:59:17.513Z,4.83
2019-03-29T15:01:48.871Z,6.17
2019-03-29T15:04:20.143Z,5.27
2019-03-29T15:06:51.462Z,6.50
2019-03-29T15:09:22.759Z,5.33
2019-03-29T15:11:54.165Z,6.73
2019-03-29T15:14:25.450Z,4.97
2019-03-29T15:16:56.789Z,4.87
2019-03-29T15:19:28.066Z,5.70
2019-03-29T15:21:59.351Z,5.53
2019-03-29T15:24:30.689Z,6.87
2019-03-29T15:27:02.004Z,5.40
2019-03-29T15:29:33.319Z,6.60
2019-03-29T15:32:04.649Z,6.00
2019-03-29T15:34:35.984Z,5.10
2019-03-29T15:37:09.945Z,6.57
2019-03-29T15:39:40.260Z,4.73
2019-03-29T15:42:11.411Z,5.07
2019-03-29T15:44:42.785Z,5.93
2019-03-29T15:47:14.064Z,11.90
2019-03-29T15:49:55.340Z,5.90
2019-03-29T15:52:18.232Z,5.37
2019-03-29T15:54:49.475Z,5.27
2019-03-29T15:57:20.761Z,6.20
2019-03-29T15:59:52.096Z,6.50
2019-03-29T16:02:23.353Z,5.93
2019-03-29T16:04:54.649Z,5.53
2019-03-29T16:07:25.975Z,6.97
2019-03-29T16:09:57.356Z,5.83
2019-03-29T16:12:28.549Z,6.90
2019-03-29T16:14:59.826Z,4.90
2019-03-29T16:17:31.222Z,7.20
2019-03-29T16:20:02.498Z,4.27
2019-03-29T16:22:33.805Z,7.03
2019-03-29T16:25:05.516Z,7.87
2019-03-29T16:27:36.718Z,6.10
2019-03-29T16:30:08.503Z,6.93
2019-03-29T16:32:39.729Z,8.17
2019-03-29T16:35:11.148Z,7.37
2019-03-29T16:37:42.382Z,7.73
2019-03-29T16:40:13.749Z,7.90
2019-03-29T16:42:45.020Z,6.10
2019-03-29T16:45:16.394Z,7.97
2019-03-29T16:47:48.650Z,8.37
2019-03-29T16:50:19.844Z,7.47
2019-03-29T16:52:51.131Z,7.23
2019-03-29T16:55:22.357Z,6.23
2019-03-29T16:57:53.555Z,6.80
2019-03-29T17:00:25.771Z,6.83
2019-03-29T17:02:57.027Z,7.87
2019-03-29T17:05:28.363Z,8.30
2019-03-29T17:07:59.689Z,5.70
2019-03-29T17:10:30.987Z,6.20
2019-03-29T17:13:02.218Z,6.37
2019-03-29T17:15:33.578Z,7.97
2019-03-29T17:18:04.865Z,6.83
2019-03-29T17:20:36.121Z,6.40
2019-03-29T17:23:07.258Z,5.80
2019-03-29T17:25:38.504Z,6.97
2019-03-29T17:28:09.781Z,6.50
2019-03-29T17:30:44.587Z,5.93
2019-03-29T17:33:15.914Z,6.43
2019-03-29T17:35:47.211Z,6.17
2019-03-29T17:38:18.520Z,5.10
2019-03-29T17:40:49.854Z,6.00
2019-03-29T17:43:21.050Z,5.40
2019-03-29T17:45:52.369Z,4.87
2019-03-29T17:48:23.612Z,5.23
2019-03-29T17:50:54.932Z,4.47
2019-03-29T17:53:26.275Z,6.60
2019-03-29T17:55:57.611Z,4.73
2019-03-29T17:58:28.979Z,5.83
2019-03-29T18:01:00.394Z,5.73
2019-03-29T18:03:31.732Z,4.67
2019-03-29T18:06:03.017Z,6.20
2019-03-29T18:08:34.293Z,5.17
2019-03-29T18:11:05.630Z,5.47
2019-03-29T18:13:36.916Z,5.30
2019-03-29T18:16:08.194Z,5.70
2019-03-29T18:18:39.428Z,4.17
2019-03-29T18:21:10.655Z,3.13
2019-03-29T18:23:41.902Z,4.43
2019-03-29T18:26:13.098Z,4.43
2019-03-29T18:28:44.449Z,6.30
2019-03-29T18:31:16.011Z,7.47
2019-03-29T18:33:47.226Z,6.43
2019-03-29T18:36:18.523Z,6.10
2019-03-29T18:38:50.406Z,4.20
2019-03-29T18:41:21.595Z,5.50
2019-03-29T18:43:52.862Z,6.07
2019-03-29T18:46:24.170Z,5.73
2019-03-29T18:48:55.355Z,7.47
2019-03-29T18:51:26.641Z,4.30
2019-03-29T18:53:58.177Z,7.07
2019-03-29T18:56:29.424Z,5.80
2019-03-29T18:59:00.729Z,5.37
2019-03-29T19:01:31.947Z,4.70
2019-03-29T19:04:03.174Z,6.43
2019-03-29T19:06:34.421Z,7.40
2019-03-29T19:09:07.727Z,4.67
2019-03-29T19:11:39.332Z,6.23
2019-03-29T19:14:10.498Z,5.37
2019-03-29T19:16:41.827Z,3.70
2019-03-29T19:19:13.021Z,4.90
2019-03-29T19:21:44.208Z,6.87
2019-03-29T19:24:15.525Z,7.70
2019-03-29T19:26:46.781Z,6.77
2019-03-29T19:29:18.037Z,5.83
2019-03-29T19:31:49.304Z,4.97
2019-03-29T19:34:20.530Z,6.63
2019-03-29T19:36:51.814Z,6.90
2019-03-29T19:39:23.184Z,6.20
2019-03-29T19:41:54.439Z,6.37
2019-03-29T19:44:25.694Z,6.83
2019-03-29T19:46:56.912Z,7.80
2019-03-29T19:49:28.288Z,5.90
2019-03-29T19:51:59.644Z,7.33
2019-03-29T19:54:31.061Z,6.13
2019-03-29T19:57:02.320Z,6.07
2019-03-29T19:59:33.959Z,4.83
2019-03-29T20:02:05.206Z,5.80
2019-03-29T20:04:36.546Z,5.80
2019-03-29T20:07:07.734Z,4.73
2019-03-29T20:09:41.866Z,6.83
2019-03-29T20:12:11.835Z,5.33
2019-03-29T20:14:43.222Z,9.60
2019-03-29T20:17:26.920Z,7.87
2019-03-29T20:19:47.385Z,6.80
2019-03-29T20:22:18.723Z,7.90
2019-03-29T20:24:49.927Z,7.60
2019-03-29T20:27:21.243Z,9.77
2019-03-29T20:29:52.577Z,8.93
2019-03-29T20:32:23.806Z,9.43
2019-03-29T20:34:55.363Z,12.20
2019-03-29T20:37:26.682Z,10.33
2019-03-29T20:39:57.935Z,11.00
2019-03-29T20:42:29.242Z,9.17
2019-03-29T20:45:00.529Z,11.33
2019-03-29T20:47:42.015Z,10.47
2019-03-29T20:50:04.941Z,10.73
2019-03-29T20:52:36.302Z,11.53
2019-03-29T20:55:07.914Z,13.00
2019-03-29T20:57:39.230Z,11.37
2019-03-29T21:00:12.911Z,11.63
2019-03-29T21:02:44.173Z,11.17
2019-03-29T21:05:15.502Z,13.27
2019-03-29T21:07:46.786Z,15.53
2019-03-29T21:10:18.153Z,14.20
2019-03-29T21:12:49.522Z,15.17
2019-03-29T21:15:20.805Z,14.40
2019-03-29T21:17:57.067Z,13.30
2019-03-29T21:20:24.998Z,14.87
2019-03-29T21:22:56.256Z,14.53
2019-03-29T21:25:27.573Z,14.13
2019-03-29T21:27:58.868Z,13.23
2019-03-29T21:30:30.114Z,16.23
2019-03-29T21:33:01.380Z,14.37
2019-03-29T21:35:32.706Z,16.57
2019-03-29T21:38:04.036Z,18.73
2019-03-29T21:40:35.289Z,15.87
2019-03-29T21:43:06.608Z,17.00
2019-03-29T21:45:37.827Z,16.80
2019-03-29T21:48:27.368Z,16.00
2019-03-29T21:50:42.078Z,15.57
2019-03-29T21:53:13.342Z,16.63
2019-03-29T21:55:44.658Z,16.10
2019-03-29T21:58:15.885Z,18.37
2019-03-29T22:00:47.141Z,16.40
2019-03-29T22:03:18.797Z,16.33
2019-03-29T22:05:49.974Z,16.47
2019-03-29T22:08:21.251Z,18.40
2019-03-29T22:10:52.811Z,17.40
2019-03-29T22:13:24.082Z,16.37
2019-03-29T22:15:55.451Z,16.57
2019-03-29T22:18:37.391Z,17.83
2019-03-29T22:20:59.512Z,14.70
2019-03-29T22:23:30.859Z,15.60
2019-03-29T22:26:02.019Z,18.10
2019-03-29T22:28:33.292Z,17.17
2019-03-29T22:31:04.447Z,16.77
2019-03-29T22:33:35.635Z,16.67
2019-03-29T22:36:06.880Z,19.70
2019-03-29T22:38:39.067Z,16.53
2019-03-29T22:41:10.303Z,19.57
2019-03-29T22:43:41.503Z,21.47
2019-03-29T22:46:12.717Z,20.00
2019-03-29T22:48:52.036Z,15.57
2019-03-29T22:51:16.941Z,19.13
2019-03-29T22:53:48.196Z,17.47
2019-03-29T22:56:19.521Z,18.20
2019-03-29T22:58:50.828Z,18.40
2019-03-29T23:01:22.055Z,15.17
2019-03-29T23:03:53.431Z,18.53
2019-03-29T23:06:24.598Z,19.47
2019-03-29T23:08:55.894Z,19.17
2019-03-29T23:11:27.205Z,14.97
2019-03-29T23:13:58.498Z,15.47
2019-03-29T23:16:30.487Z,18.50
2019-03-29T23:19:06.764Z,19.30
2019-03-29T23:21:34.677Z,18.63
2019-03-29T23:24:05.973Z,17.17
2019-03-29T23:26:37.217Z,19.90
2019-03-29T23:29:08.517Z,23.27
2019-03-29T23:31:39.783Z,79.97
2019-03-29T23:34:11.053Z,31.13
2019-03-29T23:36:42.266Z,28.60
2019-03-29T23:39:13.552Z,27.13
2019-03-29T23:41:44.718Z,21.93
2019-03-29T23:44:16.004Z,18.70
2019-03-29T23:46:47.217Z,24.00
2019-03-29T23:49:21.142Z,20.20
2019-03-29T23:51:51.366Z,19.97
2019-03-29T23:54:22.571Z,19.07
2019-03-29T23:56:53.746Z,20.70
2019-03-29T23:59:24.844Z,17.97
